Campus, New Mexico
Current Conditions -  °F | °C
As of 8:35 AM on Thursday 23 Oct 2014 (Local Time) from KONM Reporting Station
Clear Clear  
Wind Chill: 54°   Ceiling: Unl
Heat Index: 54°   Visibility: 10mi
Dew Point: 47°   Wind: 5mph
Humidity: 78%   Direction: 340°NNW
Pressure: 30.28"   Gusts: NA
Location:  33.8946°N, 106.565°W
Report Text: KONM 231435Z AUTO 34004KT 10SM CLR 12/08 A3028 RMK AO2 T01200083
Loading
Personal Weather Stations






























Interactive Weather Map
Tropical Storm Tracking
New forecast layout! Learn more

10-Day Weather Forecast

Advertisements
Track Severe Weather on mobile